sensor_id;sensor_type;location;lat;lon;timestamp;P1;durP1;ratioP1;P2;durP2;ratioP2
29634;SDS011;16557;54.762;56.068;2022-07-10T00:00:15;19.17;;;16.85;;
29634;SDS011;16557;54.762;56.068;2022-07-10T00:02:45;18.82;;;16.40;;
29634;SDS011;16557;54.762;56.068;2022-07-10T00:05:14;18.48;;;16.50;;
29634;SDS011;16557;54.762;56.068;2022-07-10T00:07:43;21.80;;;16.20;;
29634;SDS011;16557;54.762;56.068;2022-07-10T00:10:13;18.87;;;16.15;;
29634;SDS011;16557;54.762;56.068;2022-07-10T00:12:42;19.10;;;15.70;;
29634;SDS011;16557;54.762;56.068;2022-07-10T00:15:12;20.43;;;16.20;;
29634;SDS011;16557;54.762;56.068;2022-07-10T00:17:43;21.60;;;16.25;;
29634;SDS011;16557;54.762;56.068;2022-07-10T00:20:12;18.80;;;16.10;;
29634;SDS011;16557;54.762;56.068;2022-07-10T00:22:42;17.02;;;15.20;;
29634;SDS011;16557;54.762;56.068;2022-07-10T00:25:12;17.85;;;15.90;;
29634;SDS011;16557;54.762;56.068;2022-07-10T00:27:42;22.02;;;16.32;;
29634;SDS011;16557;54.762;56.068;2022-07-10T00:30:11;21.40;;;16.20;;
29634;SDS011;16557;54.762;56.068;2022-07-10T00:32:41;19.90;;;15.43;;
29634;SDS011;16557;54.762;56.068;2022-07-10T00:35:10;21.25;;;14.90;;
29634;SDS011;16557;54.762;56.068;2022-07-10T00:37:39;17.00;;;14.53;;
29634;SDS011;16557;54.762;56.068;2022-07-10T00:40:08;20.35;;;14.23;;
29634;SDS011;16557;54.762;56.068;2022-07-10T00:42:38;20.62;;;15.48;;
29634;SDS011;16557;54.762;56.068;2022-07-10T00:45:07;20.15;;;15.83;;
29634;SDS011;16557;54.762;56.068;2022-07-10T00:47:38;18.00;;;14.85;;
29634;SDS011;16557;54.762;56.068;2022-07-10T00:50:07;17.40;;;14.68;;
29634;SDS011;16557;54.762;56.068;2022-07-10T00:52:37;21.27;;;16.15;;
29634;SDS011;16557;54.762;56.068;2022-07-10T00:55:06;18.90;;;16.35;;
29634;SDS011;16557;54.762;56.068;2022-07-10T00:57:36;17.45;;;15.65;;
29634;SDS011;16557;54.762;56.068;2022-07-10T01:00:07;17.17;;;14.73;;
29634;SDS011;16557;54.762;56.068;2022-07-10T01:02:41;23.22;;;16.23;;
29634;SDS011;16557;54.762;56.068;2022-07-10T01:05:11;18.75;;;13.93;;
29634;SDS011;16557;54.762;56.068;2022-07-10T01:07:40;19.75;;;15.32;;
29634;SDS011;16557;54.762;56.068;2022-07-10T01:10:10;17.00;;;13.18;;
29634;SDS011;16557;54.762;56.068;2022-07-10T01:12:39;15.45;;;13.40;;
29634;SDS011;16557;54.762;56.068;2022-07-10T01:15:08;20.55;;;15.45;;
29634;SDS011;16557;54.762;56.068;2022-07-10T01:17:38;17.35;;;12.88;;
29634;SDS011;16557;54.762;56.068;2022-07-10T01:20:07;14.93;;;13.38;;
29634;SDS011;16557;54.762;56.068;2022-07-10T01:22:37;17.57;;;13.18;;
29634;SDS011;16557;54.762;56.068;2022-07-10T01:25:06;14.20;;;12.63;;
29634;SDS011;16557;54.762;56.068;2022-07-10T01:27:38;19.20;;;13.93;;
29634;SDS011;16557;54.762;56.068;2022-07-10T01:30:08;16.45;;;12.35;;
29634;SDS011;16557;54.762;56.068;2022-07-10T01:32:38;16.65;;;13.62;;
29634;SDS011;16557;54.762;56.068;2022-07-10T01:35:08;16.77;;;12.58;;
29634;SDS011;16557;54.762;56.068;2022-07-10T01:37:38;15.18;;;12.65;;
29634;SDS011;16557;54.762;56.068;2022-07-10T01:40:08;13.20;;;11.88;;
29634;SDS011;16557;54.762;56.068;2022-07-10T01:42:38;16.82;;;14.05;;
29634;SDS011;16557;54.762;56.068;2022-07-10T01:45:07;18.85;;;14.65;;
29634;SDS011;16557;54.762;56.068;2022-07-10T01:47:37;14.87;;;13.18;;
29634;SDS011;16557;54.762;56.068;2022-07-10T01:50:07;16.87;;;13.08;;
29634;SDS011;16557;54.762;56.068;2022-07-10T01:52:36;14.05;;;12.65;;
29634;SDS011;16557;54.762;56.068;2022-07-10T01:55:06;16.05;;;12.30;;
29634;SDS011;16557;54.762;56.068;2022-07-10T01:57:36;17.60;;;13.55;;
29634;SDS011;16557;54.762;56.068;2022-07-10T02:00:05;13.78;;;12.33;;
29634;SDS011;16557;54.762;56.068;2022-07-10T02:02:36;13.28;;;11.85;;
29634;SDS011;16557;54.762;56.068;2022-07-10T02:05:06;15.20;;;10.88;;
29634;SDS011;16557;54.762;56.068;2022-07-10T02:07:35;15.13;;;11.73;;
29634;SDS011;16557;54.762;56.068;2022-07-10T02:10:05;13.70;;;11.25;;
29634;SDS011;16557;54.762;56.068;2022-07-10T02:12:34;15.55;;;11.10;;
29634;SDS011;16557;54.762;56.068;2022-07-10T02:15:04;13.25;;;11.30;;
29634;SDS011;16557;54.762;56.068;2022-07-10T02:17:34;13.80;;;11.83;;
29634;SDS011;16557;54.762;56.068;2022-07-10T02:20:03;16.50;;;11.33;;
29634;SDS011;16557;54.762;56.068;2022-07-10T02:22:33;12.80;;;11.12;;
29634;SDS011;16557;54.762;56.068;2022-07-10T02:25:02;12.28;;;10.95;;
29634;SDS011;16557;54.762;56.068;2022-07-10T02:27:32;17.25;;;11.05;;
29634;SDS011;16557;54.762;56.068;2022-07-10T02:30:01;12.28;;;10.98;;
29634;SDS011;16557;54.762;56.068;2022-07-10T02:32:31;16.87;;;9.60;;
29634;SDS011;16557;54.762;56.068;2022-07-10T02:35:00;10.82;;;9.33;;
29634;SDS011;16557;54.762;56.068;2022-07-10T02:37:29;11.83;;;9.73;;
29634;SDS011;16557;54.762;56.068;2022-07-10T02:39:58;11.08;;;9.65;;
29634;SDS011;16557;54.762;56.068;2022-07-10T02:42:29;14.80;;;10.63;;
29634;SDS011;16557;54.762;56.068;2022-07-10T02:44:58;9.30;;;8.38;;
29634;SDS011;16557;54.762;56.068;2022-07-10T02:47:28;10.95;;;7.75;;
29634;SDS011;16557;54.762;56.068;2022-07-10T02:49:58;10.98;;;7.87;;
29634;SDS011;16557;54.762;56.068;2022-07-10T02:52:29;13.98;;;8.13;;
29634;SDS011;16557;54.762;56.068;2022-07-10T02:54:58;11.78;;;7.53;;
29634;SDS011;16557;54.762;56.068;2022-07-10T02:57:29;8.25;;;7.50;;
29634;SDS011;16557;54.762;56.068;2022-07-10T02:59:58;8.83;;;7.17;;
29634;SDS011;16557;54.762;56.068;2022-07-10T03:02:29;12.35;;;7.78;;
29634;SDS011;16557;54.762;56.068;2022-07-10T03:04:59;10.40;;;6.60;;
29634;SDS011;16557;54.762;56.068;2022-07-10T03:07:29;11.68;;;7.10;;
29634;SDS011;16557;54.762;56.068;2022-07-10T03:09:59;9.20;;;6.90;;
29634;SDS011;16557;54.762;56.068;2022-07-10T03:12:29;8.30;;;6.28;;
29634;SDS011;16557;54.762;56.068;2022-07-10T03:14:58;9.78;;;7.35;;
29634;SDS011;16557;54.762;56.068;2022-07-10T03:17:29;9.60;;;6.90;;
29634;SDS011;16557;54.762;56.068;2022-07-10T03:19:58;10.15;;;6.78;;
29634;SDS011;16557;54.762;56.068;2022-07-10T03:22:29;12.82;;;6.35;;
29634;SDS011;16557;54.762;56.068;2022-07-10T03:25:00;7.53;;;6.78;;
29634;SDS011;16557;54.762;56.068;2022-07-10T03:27:29;11.40;;;7.17;;
29634;SDS011;16557;54.762;56.068;2022-07-10T03:29:58;44.42;;;39.05;;
29634;SDS011;16557;54.762;56.068;2022-07-10T03:32:29;16.95;;;9.70;;
29634;SDS011;16557;54.762;56.068;2022-07-10T03:34:59;11.05;;;7.17;;
29634;SDS011;16557;54.762;56.068;2022-07-10T03:37:29;9.40;;;6.58;;
29634;SDS011;16557;54.762;56.068;2022-07-10T03:39:58;8.93;;;6.60;;
29634;SDS011;16557;54.762;56.068;2022-07-10T03:42:29;10.53;;;5.75;;
29634;SDS011;16557;54.762;56.068;2022-07-10T03:44:58;7.40;;;6.70;;
29634;SDS011;16557;54.762;56.068;2022-07-10T03:47:29;8.70;;;6.53;;
29634;SDS011;16557;54.762;56.068;2022-07-10T03:49:58;12.95;;;6.58;;
29634;SDS011;16557;54.762;56.068;2022-07-10T03:52:29;9.58;;;6.95;;
29634;SDS011;16557;54.762;56.068;2022-07-10T03:54:59;10.20;;;6.28;;
29634;SDS011;16557;54.762;56.068;2022-07-10T03:57:28;8.53;;;6.85;;
29634;SDS011;16557;54.762;56.068;2022-07-10T04:00:25;9.00;;;6.30;;
29634;SDS011;16557;54.762;56.068;2022-07-10T04:02:58;8.85;;;6.67;;
29634;SDS011;16557;54.762;56.068;2022-07-10T04:05:29;7.35;;;6.55;;
29634;SDS011;16557;54.762;56.068;2022-07-10T04:07:59;10.15;;;6.85;;
29634;SDS011;16557;54.762;56.068;2022-07-10T04:10:29;11.73;;;6.60;;
29634;SDS011;16557;54.762;56.068;2022-07-10T04:12:59;11.12;;;6.00;;
29634;SDS011;16557;54.762;56.068;2022-07-10T04:15:28;9.53;;;6.50;;
29634;SDS011;16557;54.762;56.068;2022-07-10T04:17:57;8.90;;;6.42;;
29634;SDS011;16557;54.762;56.068;2022-07-10T04:20:27;11.43;;;6.97;;
29634;SDS011;16557;54.762;56.068;2022-07-10T04:22:56;11.40;;;6.83;;
29634;SDS011;16557;54.762;56.068;2022-07-10T04:25:25;7.47;;;6.67;;
29634;SDS011;16557;54.762;56.068;2022-07-10T04:27:54;6.95;;;6.25;;
29634;SDS011;16557;54.762;56.068;2022-07-10T04:30:24;9.58;;;6.45;;
29634;SDS011;16557;54.762;56.068;2022-07-10T04:32:53;8.48;;;6.28;;
29634;SDS011;16557;54.762;56.068;2022-07-10T04:35:22;6.83;;;5.97;;
29634;SDS011;16557;54.762;56.068;2022-07-10T04:37:51;8.25;;;6.90;;
29634;SDS011;16557;54.762;56.068;2022-07-10T04:40:20;10.63;;;6.35;;
29634;SDS011;16557;54.762;56.068;2022-07-10T04:42:50;8.10;;;6.22;;
29634;SDS011;16557;54.762;56.068;2022-07-10T04:45:19;11.38;;;6.50;;
29634;SDS011;16557;54.762;56.068;2022-07-10T04:47:48;7.22;;;6.53;;
29634;SDS011;16557;54.762;56.068;2022-07-10T04:50:17;9.25;;;6.97;;
29634;SDS011;16557;54.762;56.068;2022-07-10T04:52:47;8.88;;;6.28;;
29634;SDS011;16557;54.762;56.068;2022-07-10T04:55:16;9.63;;;6.62;;
29634;SDS011;16557;54.762;56.068;2022-07-10T04:57:45;9.60;;;6.70;;
29634;SDS011;16557;54.762;56.068;2022-07-10T05:00:15;12.47;;;6.28;;
29634;SDS011;16557;54.762;56.068;2022-07-10T05:02:45;9.33;;;6.55;;
29634;SDS011;16557;54.762;56.068;2022-07-10T05:05:15;12.23;;;5.92;;
29634;SDS011;16557;54.762;56.068;2022-07-10T05:07:44;8.38;;;7.22;;
29634;SDS011;16557;54.762;56.068;2022-07-10T05:10:13;8.90;;;6.22;;
29634;SDS011;16557;54.762;56.068;2022-07-10T05:12:42;29.75;;;26.62;;
29634;SDS011;16557;54.762;56.068;2022-07-10T05:15:12;22.52;;;18.50;;
29634;SDS011;16557;54.762;56.068;2022-07-10T05:17:42;9.90;;;7.58;;
29634;SDS011;16557;54.762;56.068;2022-07-10T05:20:12;13.80;;;9.88;;
29634;SDS011;16557;54.762;56.068;2022-07-10T05:22:41;11.45;;;7.08;;
29634;SDS011;16557;54.762;56.068;2022-07-10T05:25:10;16.90;;;11.20;;
29634;SDS011;16557;54.762;56.068;2022-07-10T05:27:39;10.63;;;6.95;;
29634;SDS011;16557;54.762;56.068;2022-07-10T05:30:09;10.98;;;6.47;;
29634;SDS011;16557;54.762;56.068;2022-07-10T05:32:42;7.87;;;5.87;;
29634;SDS011;16557;54.762;56.068;2022-07-10T05:35:13;11.65;;;6.55;;
29634;SDS011;16557;54.762;56.068;2022-07-10T05:37:42;10.50;;;5.95;;
29634;SDS011;16557;54.762;56.068;2022-07-10T05:40:12;8.78;;;5.87;;
29634;SDS011;16557;54.762;56.068;2022-07-10T05:42:41;9.30;;;6.58;;
29634;SDS011;16557;54.762;56.068;2022-07-10T05:45:11;10.32;;;6.72;;
29634;SDS011;16557;54.762;56.068;2022-07-10T05:47:40;7.62;;;5.90;;
29634;SDS011;16557;54.762;56.068;2022-07-10T05:50:10;10.95;;;8.40;;
29634;SDS011;16557;54.762;56.068;2022-07-10T05:52:39;10.10;;;6.70;;
29634;SDS011;16557;54.762;56.068;2022-07-10T05:55:09;7.17;;;6.10;;
29634;SDS011;16557;54.762;56.068;2022-07-10T05:57:38;9.10;;;5.62;;
29634;SDS011;16557;54.762;56.068;2022-07-10T06:00:08;10.15;;;6.12;;
29634;SDS011;16557;54.762;56.068;2022-07-10T06:02:38;10.65;;;5.33;;
29634;SDS011;16557;54.762;56.068;2022-07-10T06:05:07;6.37;;;5.78;;
29634;SDS011;16557;54.762;56.068;2022-07-10T06:07:37;6.35;;;5.67;;
29634;SDS011;16557;54.762;56.068;2022-07-10T06:10:06;9.68;;;6.92;;
29634;SDS011;16557;54.762;56.068;2022-07-10T06:12:36;8.88;;;5.53;;
29634;SDS011;16557;54.762;56.068;2022-07-10T06:15:06;8.90;;;6.20;;
29634;SDS011;16557;54.762;56.068;2022-07-10T06:17:35;13.20;;;6.40;;
29634;SDS011;16557;54.762;56.068;2022-07-10T06:20:05;9.70;;;5.97;;
29634;SDS011;16557;54.762;56.068;2022-07-10T06:22:35;7.28;;;5.80;;
29634;SDS011;16557;54.762;56.068;2022-07-10T06:25:05;9.85;;;6.55;;
29634;SDS011;16557;54.762;56.068;2022-07-10T06:27:36;6.10;;;5.50;;
29634;SDS011;16557;54.762;56.068;2022-07-10T06:30:06;9.05;;;5.85;;
29634;SDS011;16557;54.762;56.068;2022-07-10T06:32:35;10.98;;;6.50;;
29634;SDS011;16557;54.762;56.068;2022-07-10T06:35:04;6.05;;;5.45;;
29634;SDS011;16557;54.762;56.068;2022-07-10T06:37:35;7.90;;;5.80;;
29634;SDS011;16557;54.762;56.068;2022-07-10T06:40:04;6.15;;;5.55;;
29634;SDS011;16557;54.762;56.068;2022-07-10T06:42:34;8.80;;;5.95;;
29634;SDS011;16557;54.762;56.068;2022-07-10T06:45:03;8.98;;;6.10;;
29634;SDS011;16557;54.762;56.068;2022-07-10T06:47:33;13.83;;;6.92;;
29634;SDS011;16557;54.762;56.068;2022-07-10T06:50:21;9.15;;;6.37;;
29634;SDS011;16557;54.762;56.068;2022-07-10T06:52:52;7.65;;;5.83;;
29634;SDS011;16557;54.762;56.068;2022-07-10T06:55:21;8.38;;;5.87;;
29634;SDS011;16557;54.762;56.068;2022-07-10T06:57:51;7.95;;;6.10;;
29634;SDS011;16557;54.762;56.068;2022-07-10T07:00:21;8.00;;;5.35;;
29634;SDS011;16557;54.762;56.068;2022-07-10T07:02:51;7.70;;;6.10;;
29634;SDS011;16557;54.762;56.068;2022-07-10T07:05:20;9.48;;;7.37;;
29634;SDS011;16557;54.762;56.068;2022-07-10T07:07:50;9.60;;;5.92;;
29634;SDS011;16557;54.762;56.068;2022-07-10T07:10:19;8.33;;;6.15;;
29634;SDS011;16557;54.762;56.068;2022-07-10T07:12:48;10.23;;;6.45;;
29634;SDS011;16557;54.762;56.068;2022-07-10T07:15:17;10.45;;;5.70;;
29634;SDS011;16557;54.762;56.068;2022-07-10T07:17:48;6.53;;;5.78;;
29634;SDS011;16557;54.762;56.068;2022-07-10T07:20:35;6.35;;;5.85;;
29634;SDS011;16557;54.762;56.068;2022-07-10T07:23:23;6.53;;;5.28;;
29634;SDS011;16557;54.762;56.068;2022-07-10T07:25:52;6.87;;;5.45;;
29634;SDS011;16557;54.762;56.068;2022-07-10T07:28:23;7.80;;;5.45;;
29634;SDS011;16557;54.762;56.068;2022-07-10T07:30:52;10.63;;;5.80;;
29634;SDS011;16557;54.762;56.068;2022-07-10T07:33:21;11.12;;;5.92;;
29634;SDS011;16557;54.762;56.068;2022-07-10T07:35:50;7.20;;;5.70;;
29634;SDS011;16557;54.762;56.068;2022-07-10T07:38:20;10.80;;;6.05;;
29634;SDS011;16557;54.762;56.068;2022-07-10T07:40:49;6.03;;;5.45;;
29634;SDS011;16557;54.762;56.068;2022-07-10T07:43:18;9.85;;;6.33;;
29634;SDS011;16557;54.762;56.068;2022-07-10T07:45:48;6.58;;;5.78;;
29634;SDS011;16557;54.762;56.068;2022-07-10T07:48:17;10.75;;;5.60;;
29634;SDS011;16557;54.762;56.068;2022-07-10T07:50:46;5.92;;;5.35;;
29634;SDS011;16557;54.762;56.068;2022-07-10T07:53:15;9.58;;;6.30;;
29634;SDS011;16557;54.762;56.068;2022-07-10T07:55:45;6.35;;;5.65;;
29634;SDS011;16557;54.762;56.068;2022-07-10T07:58:14;9.75;;;6.37;;
29634;SDS011;16557;54.762;56.068;2022-07-10T08:00:43;6.72;;;6.12;;
29634;SDS011;16557;54.762;56.068;2022-07-10T08:03:12;6.60;;;5.67;;
29634;SDS011;16557;54.762;56.068;2022-07-10T08:05:42;9.13;;;6.87;;
29634;SDS011;16557;54.762;56.068;2022-07-10T08:08:12;13.48;;;7.28;;
29634;SDS011;16557;54.762;56.068;2022-07-10T08:10:41;6.65;;;6.05;;
29634;SDS011;16557;54.762;56.068;2022-07-10T08:13:11;11.20;;;6.37;;
29634;SDS011;16557;54.762;56.068;2022-07-10T08:15:40;7.45;;;6.00;;
29634;SDS011;16557;54.762;56.068;2022-07-10T08:18:09;12.37;;;6.08;;
29634;SDS011;16557;54.762;56.068;2022-07-10T08:20:39;7.35;;;6.62;;
29634;SDS011;16557;54.762;56.068;2022-07-10T08:23:08;6.75;;;6.05;;
29634;SDS011;16557;54.762;56.068;2022-07-10T08:25:37;6.92;;;5.67;;
29634;SDS011;16557;54.762;56.068;2022-07-10T08:28:07;6.78;;;6.20;;
29634;SDS011;16557;54.762;56.068;2022-07-10T08:30:38;7.20;;;6.50;;
29634;SDS011;16557;54.762;56.068;2022-07-10T08:33:08;9.23;;;7.17;;
29634;SDS011;16557;54.762;56.068;2022-07-10T08:35:38;7.75;;;6.37;;
29634;SDS011;16557;54.762;56.068;2022-07-10T08:38:07;9.38;;;7.10;;
29634;SDS011;16557;54.762;56.068;2022-07-10T08:40:37;12.85;;;6.72;;
29634;SDS011;16557;54.762;56.068;2022-07-10T08:43:06;6.65;;;6.03;;
29634;SDS011;16557;54.762;56.068;2022-07-10T08:45:36;7.15;;;6.45;;
29634;SDS011;16557;54.762;56.068;2022-07-10T08:48:05;7.50;;;6.80;;
29634;SDS011;16557;54.762;56.068;2022-07-10T08:50:37;26.93;;;7.75;;
29634;SDS011;16557;54.762;56.068;2022-07-10T08:55:45;9.18;;;7.60;;
29634;SDS011;16557;54.762;56.068;2022-07-10T08:58:14;10.30;;;9.35;;
29634;SDS011;16557;54.762;56.068;2022-07-10T09:00:44;11.25;;;8.30;;
29634;SDS011;16557;54.762;56.068;2022-07-10T09:03:13;11.60;;;7.15;;
29634;SDS011;16557;54.762;56.068;2022-07-10T09:05:42;9.05;;;7.62;;
29634;SDS011;16557;54.762;56.068;2022-07-10T09:08:21;11.33;;;7.85;;
29634;SDS011;16557;54.762;56.068;2022-07-10T09:11:21;9.75;;;6.83;;
29634;SDS011;16557;54.762;56.068;2022-07-10T09:13:55;7.45;;;6.75;;
29634;SDS011;16557;54.762;56.068;2022-07-10T09:16:23;7.65;;;6.95;;
29634;SDS011;16557;54.762;56.068;2022-07-10T09:18:54;7.15;;;5.92;;
29634;SDS011;16557;54.762;56.068;2022-07-10T09:21:23;6.92;;;6.33;;
29634;SDS011;16557;54.762;56.068;2022-07-10T09:23:58;7.95;;;7.17;;
29634;SDS011;16557;54.762;56.068;2022-07-10T09:26:27;10.38;;;7.12;;
29634;SDS011;16557;54.762;56.068;2022-07-10T09:29:09;11.53;;;7.00;;
29634;SDS011;16557;54.762;56.068;2022-07-10T09:31:52;11.05;;;9.48;;
29634;SDS011;16557;54.762;56.068;2022-07-10T09:34:38;10.85;;;7.28;;
29634;SDS011;16557;54.762;56.068;2022-07-10T09:37:22;12.18;;;7.12;;
29634;SDS011;16557;54.762;56.068;2022-07-10T09:40:01;20.82;;;18.70;;
29634;SDS011;16557;54.762;56.068;2022-07-10T09:42:38;27.20;;;19.67;;
29634;SDS011;16557;54.762;56.068;2022-07-10T09:50:23;12.10;;;7.92;;
29634;SDS011;16557;54.762;56.068;2022-07-10T09:53:05;8.83;;;7.12;;
29634;SDS011;16557;54.762;56.068;2022-07-10T09:55:37;18.45;;;7.83;;
29634;SDS011;16557;54.762;56.068;2022-07-10T09:58:08;10.72;;;8.23;;
29634;SDS011;16557;54.762;56.068;2022-07-10T10:00:38;10.70;;;7.75;;
29634;SDS011;16557;54.762;56.068;2022-07-10T10:03:12;12.13;;;8.80;;
29634;SDS011;16557;54.762;56.068;2022-07-10T10:05:43;16.95;;;12.98;;
29634;SDS011;16557;54.762;56.068;2022-07-10T10:08:51;11.57;;;7.72;;
29634;SDS011;16557;54.762;56.068;2022-07-10T10:11:20;10.50;;;7.90;;
29634;SDS011;16557;54.762;56.068;2022-07-10T10:13:50;8.20;;;6.60;;
29634;SDS011;16557;54.762;56.068;2022-07-10T10:16:19;11.12;;;8.30;;
29634;SDS011;16557;54.762;56.068;2022-07-10T10:18:49;9.15;;;8.28;;
29634;SDS011;16557;54.762;56.068;2022-07-10T10:21:37;10.10;;;7.53;;
29634;SDS011;16557;54.762;56.068;2022-07-10T10:24:07;9.93;;;7.28;;
29634;SDS011;16557;54.762;56.068;2022-07-10T10:26:37;7.35;;;6.42;;
29634;SDS011;16557;54.762;56.068;2022-07-10T10:29:07;7.70;;;6.90;;
29634;SDS011;16557;54.762;56.068;2022-07-10T10:31:38;9.15;;;7.92;;
29634;SDS011;16557;54.762;56.068;2022-07-10T10:34:08;8.28;;;7.47;;
29634;SDS011;16557;54.762;56.068;2022-07-10T10:39:15;9.45;;;7.08;;
29634;SDS011;16557;54.762;56.068;2022-07-10T10:41:51;15.68;;;8.15;;
29634;SDS011;16557;54.762;56.068;2022-07-10T10:44:21;14.30;;;7.33;;
29634;SDS011;16557;54.762;56.068;2022-07-10T10:50:12;8.25;;;7.25;;
29634;SDS011;16557;54.762;56.068;2022-07-10T10:52:18;7.90;;;6.92;;
29634;SDS011;16557;54.762;56.068;2022-07-10T11:00:06;7.90;;;7.12;;
29634;SDS011;16557;54.762;56.068;2022-07-10T11:02:37;10.25;;;7.12;;
29634;SDS011;16557;54.762;56.068;2022-07-10T11:07:54;13.40;;;8.80;;
29634;SDS011;16557;54.762;56.068;2022-07-10T11:10:32;11.22;;;7.67;;
29634;SDS011;16557;54.762;56.068;2022-07-10T11:15:43;10.00;;;8.63;;
29634;SDS011;16557;54.762;56.068;2022-07-10T11:18:20;9.03;;;7.58;;
29634;SDS011;16557;54.762;56.068;2022-07-10T11:20:57;10.35;;;8.15;;
29634;SDS011;16557;54.762;56.068;2022-07-10T11:31:29;14.15;;;8.93;;
29634;SDS011;16557;54.762;56.068;2022-07-10T11:33:59;12.60;;;9.28;;
29634;SDS011;16557;54.762;56.068;2022-07-10T11:36:30;10.10;;;8.70;;
29634;SDS011;16557;54.762;56.068;2022-07-10T11:39:03;10.80;;;9.73;;
29634;SDS011;16557;54.762;56.068;2022-07-10T11:41:33;11.00;;;9.70;;
29634;SDS011;16557;54.762;56.068;2022-07-10T11:44:04;12.90;;;8.88;;
29634;SDS011;16557;54.762;56.068;2022-07-10T11:46:34;11.75;;;8.90;;
29634;SDS011;16557;54.762;56.068;2022-07-10T11:49:05;11.97;;;9.70;;
29634;SDS011;16557;54.762;56.068;2022-07-10T11:51:37;14.25;;;9.53;;
29634;SDS011;16557;54.762;56.068;2022-07-10T11:54:07;16.12;;;8.68;;
29634;SDS011;16557;54.762;56.068;2022-07-10T11:56:46;17.45;;;10.38;;
29634;SDS011;16557;54.762;56.068;2022-07-10T11:59:17;12.40;;;10.30;;
29634;SDS011;16557;54.762;56.068;2022-07-10T12:01:47;15.55;;;9.88;;
29634;SDS011;16557;54.762;56.068;2022-07-10T12:04:18;12.53;;;10.88;;
29634;SDS011;16557;54.762;56.068;2022-07-10T12:06:54;13.60;;;10.72;;
29634;SDS011;16557;54.762;56.068;2022-07-10T12:09:24;23.15;;;10.65;;
29634;SDS011;16557;54.762;56.068;2022-07-10T12:12:00;10.88;;;9.78;;
29634;SDS011;16557;54.762;56.068;2022-07-10T12:14:30;17.62;;;9.30;;
29634;SDS011;16557;54.762;56.068;2022-07-10T12:17:00;9.65;;;8.45;;
29634;SDS011;16557;54.762;56.068;2022-07-10T12:19:29;15.23;;;9.73;;
29634;SDS011;16557;54.762;56.068;2022-07-10T12:22:01;12.13;;;10.20;;
29634;SDS011;16557;54.762;56.068;2022-07-10T12:24:30;11.93;;;9.73;;
29634;SDS011;16557;54.762;56.068;2022-07-10T12:27:00;23.98;;;10.80;;
29634;SDS011;16557;54.762;56.068;2022-07-10T12:29:30;14.38;;;10.58;;
29634;SDS011;16557;54.762;56.068;2022-07-10T12:31:59;17.50;;;12.33;;
29634;SDS011;16557;54.762;56.068;2022-07-10T12:34:39;11.45;;;10.35;;
29634;SDS011;16557;54.762;56.068;2022-07-10T12:37:07;18.30;;;11.22;;
29634;SDS011;16557;54.762;56.068;2022-07-10T12:39:48;12.85;;;10.82;;
29634;SDS011;16557;54.762;56.068;2022-07-10T12:42:29;12.93;;;10.85;;
29634;SDS011;16557;54.762;56.068;2022-07-10T12:45:14;12.23;;;11.03;;
29634;SDS011;16557;54.762;56.068;2022-07-10T12:47:50;13.88;;;12.05;;
29634;SDS011;16557;54.762;56.068;2022-07-10T12:50:16;15.98;;;11.75;;
29634;SDS011;16557;54.762;56.068;2022-07-10T12:52:46;17.70;;;13.10;;
29634;SDS011;16557;54.762;56.068;2022-07-10T12:55:16;15.80;;;11.80;;
29634;SDS011;16557;54.762;56.068;2022-07-10T12:57:55;13.48;;;12.18;;
29634;SDS011;16557;54.762;56.068;2022-07-10T13:00:31;12.80;;;11.57;;
29634;SDS011;16557;54.762;56.068;2022-07-10T13:03:02;13.88;;;11.33;;
29634;SDS011;16557;54.762;56.068;2022-07-10T13:05:37;15.15;;;11.50;;
29634;SDS011;16557;54.762;56.068;2022-07-10T13:08:23;12.88;;;11.65;;
29634;SDS011;16557;54.762;56.068;2022-07-10T13:10:56;11.50;;;10.48;;
29634;SDS011;16557;54.762;56.068;2022-07-10T13:13:26;19.77;;;12.00;;
29634;SDS011;16557;54.762;56.068;2022-07-10T13:15:58;11.63;;;10.53;;
29634;SDS011;16557;54.762;56.068;2022-07-10T13:18:28;11.90;;;10.65;;
29634;SDS011;16557;54.762;56.068;2022-07-10T13:20:57;11.68;;;10.48;;
29634;SDS011;16557;54.762;56.068;2022-07-10T13:23:26;12.33;;;11.12;;
29634;SDS011;16557;54.762;56.068;2022-07-10T13:25:56;19.50;;;13.40;;
29634;SDS011;16557;54.762;56.068;2022-07-10T13:28:30;13.83;;;11.95;;
29634;SDS011;16557;54.762;56.068;2022-07-10T13:30:59;18.73;;;11.68;;
29634;SDS011;16557;54.762;56.068;2022-07-10T13:33:28;12.65;;;10.85;;
29634;SDS011;16557;54.762;56.068;2022-07-10T13:36:01;17.05;;;10.80;;
29634;SDS011;16557;54.762;56.068;2022-07-10T13:38:31;23.62;;;9.88;;
29634;SDS011;16557;54.762;56.068;2022-07-10T13:41:02;14.10;;;9.78;;
29634;SDS011;16557;54.762;56.068;2022-07-10T13:43:32;13.15;;;10.08;;
29634;SDS011;16557;54.762;56.068;2022-07-10T13:46:02;18.98;;;10.50;;
29634;SDS011;16557;54.762;56.068;2022-07-10T13:48:31;11.33;;;10.13;;
29634;SDS011;16557;54.762;56.068;2022-07-10T13:51:00;12.03;;;10.63;;
29634;SDS011;16557;54.762;56.068;2022-07-10T13:53:30;13.05;;;10.80;;
29634;SDS011;16557;54.762;56.068;2022-07-10T13:55:59;15.20;;;11.18;;
29634;SDS011;16557;54.762;56.068;2022-07-10T13:58:28;12.90;;;11.12;;
29634;SDS011;16557;54.762;56.068;2022-07-10T14:00:57;12.73;;;11.03;;
29634;SDS011;16557;54.762;56.068;2022-07-10T14:03:27;11.80;;;10.65;;
29634;SDS011;16557;54.762;56.068;2022-07-10T14:05:56;16.40;;;10.60;;
29634;SDS011;16557;54.762;56.068;2022-07-10T14:08:26;12.05;;;10.65;;
29634;SDS011;16557;54.762;56.068;2022-07-10T14:10:55;14.03;;;10.35;;
29634;SDS011;16557;54.762;56.068;2022-07-10T14:13:25;13.20;;;10.38;;
29634;SDS011;16557;54.762;56.068;2022-07-10T14:15:54;14.18;;;11.55;;
29634;SDS011;16557;54.762;56.068;2022-07-10T14:18:24;15.88;;;9.93;;
29634;SDS011;16557;54.762;56.068;2022-07-10T14:21:04;14.50;;;11.05;;
29634;SDS011;16557;54.762;56.068;2022-07-10T14:23:36;14.50;;;11.28;;
29634;SDS011;16557;54.762;56.068;2022-07-10T14:26:11;14.50;;;10.93;;
29634;SDS011;16557;54.762;56.068;2022-07-10T14:28:41;14.40;;;11.83;;
29634;SDS011;16557;54.762;56.068;2022-07-10T14:31:10;16.30;;;12.00;;
29634;SDS011;16557;54.762;56.068;2022-07-10T14:33:39;15.18;;;11.63;;
29634;SDS011;16557;54.762;56.068;2022-07-10T14:36:08;13.55;;;11.33;;
29634;SDS011;16557;54.762;56.068;2022-07-10T14:38:38;12.25;;;11.15;;
29634;SDS011;16557;54.762;56.068;2022-07-10T14:41:07;12.35;;;10.93;;
29634;SDS011;16557;54.762;56.068;2022-07-10T14:43:36;13.83;;;11.28;;
29634;SDS011;16557;54.762;56.068;2022-07-10T14:46:06;17.10;;;12.28;;
29634;SDS011;16557;54.762;56.068;2022-07-10T14:48:35;14.05;;;11.50;;
29634;SDS011;16557;54.762;56.068;2022-07-10T14:51:04;25.62;;;12.37;;
29634;SDS011;16557;54.762;56.068;2022-07-10T14:53:35;13.22;;;11.68;;
29634;SDS011;16557;54.762;56.068;2022-07-10T14:56:05;15.32;;;11.73;;
29634;SDS011;16557;54.762;56.068;2022-07-10T14:58:35;12.93;;;11.63;;
29634;SDS011;16557;54.762;56.068;2022-07-10T15:01:04;20.20;;;12.25;;
29634;SDS011;16557;54.762;56.068;2022-07-10T15:03:33;13.35;;;11.88;;
29634;SDS011;16557;54.762;56.068;2022-07-10T15:06:03;12.93;;;11.28;;
29634;SDS011;16557;54.762;56.068;2022-07-10T15:08:33;15.83;;;12.98;;
29634;SDS011;16557;54.762;56.068;2022-07-10T15:11:02;14.20;;;12.82;;
29634;SDS011;16557;54.762;56.068;2022-07-10T15:13:32;14.00;;;12.00;;